createdAt,value
2023-01-12T00:04:02.058Z,5.68
2023-01-12T00:14:05.139Z,6.95
2023-01-12T00:24:07.246Z,6.63
2023-01-12T00:34:09.319Z,7.28
2023-01-12T00:44:11.233Z,7.72
2023-01-12T00:54:13.120Z,6.30
2023-01-12T01:04:16.523Z,7.70
2023-01-12T01:14:18.519Z,10.30
2023-01-12T01:24:20.396Z,9.43
2023-01-12T01:34:22.580Z,7.03
2023-01-12T01:44:30.566Z,7.75
2023-01-12T01:54:37.713Z,7.70
2023-01-12T02:04:39.659Z,9.25
2023-01-12T02:14:43.201Z,9.05
2023-01-12T02:25:15.732Z,9.45
2023-01-12T02:35:26.728Z,9.13
2023-01-12T02:45:39.005Z,7.75
2023-01-12T02:55:41.514Z,10.10
2023-01-12T03:05:44.106Z,8.40
2023-01-12T03:15:49.931Z,10.02
2023-01-12T03:25:54.454Z,17.98
2023-01-12T03:36:20.024Z,18.80
2023-01-12T03:46:51.125Z,13.45
2023-01-12T03:56:54.408Z,11.73
2023-01-12T04:06:56.657Z,13.32
2023-01-12T04:17:01.821Z,15.25
2023-01-12T04:27:03.739Z,15.43
2023-01-12T04:37:05.600Z,12.05
2023-01-12T04:47:07.437Z,12.13
2023-01-12T04:57:09.252Z,13.50
2023-01-12T05:07:14.436Z,13.80
2023-01-12T05:17:19.360Z,15.90
2023-01-12T05:27:21.280Z,15.85
2023-01-12T05:37:26.262Z,18.15
2023-01-12T05:47:28.163Z,16.20
2023-01-12T05:57:31.557Z,18.92
2023-01-12T06:07:33.362Z,15.68
2023-01-12T06:17:35.184Z,18.90
2023-01-12T06:27:37.210Z,20.13
2023-01-12T06:37:39.156Z,19.23
2023-01-12T06:47:48.769Z,18.92
2023-01-12T06:57:50.688Z,21.63
2023-01-12T07:07:58.670Z,18.70
2023-01-12T07:18:00.717Z,19.10
2023-01-12T07:28:02.604Z,24.13
2023-01-12T07:38:04.634Z,25.33
2023-01-12T07:48:06.701Z,24.02
2023-01-12T07:58:09.175Z,18.98
2023-01-12T08:08:14.320Z,21.58
2023-01-12T08:18:22.570Z,14.00
2023-01-12T08:28:31.869Z,12.40
2023-01-12T08:38:33.844Z,12.20
2023-01-12T08:48:39.133Z,11.15
2023-01-12T08:58:41.105Z,11.35
2023-01-12T09:08:43.848Z,12.55
2023-01-12T09:18:46.537Z,12.23
2023-01-12T09:28:48.619Z,9.15
2023-01-12T09:38:50.721Z,9.05
2023-01-12T09:48:52.649Z,9.10
2023-01-12T09:59:12.451Z,6.47
2023-01-12T10:09:19.138Z,8.23
2023-01-12T10:19:28.619Z,6.65
2023-01-12T10:29:33.539Z,7.53
2023-01-12T10:39:38.118Z,5.80
2023-01-12T10:49:40.019Z,6.57
2023-01-12T10:59:49.434Z,6.80
2023-01-12T11:09:51.533Z,5.93
2023-01-12T11:19:55.342Z,5.57
2023-01-12T11:30:17.739Z,4.38
2023-01-12T11:40:32.929Z,2.95
2023-01-12T11:50:37.838Z,3.63
2023-01-12T12:00:59.332Z,3.90
2023-01-12T12:11:06.057Z,3.67
2023-01-12T12:21:29.871Z,3.08
2023-01-12T12:31:48.256Z,3.80
2023-01-12T12:42:11.651Z,3.63
2023-01-12T12:52:14.131Z,4.40
2023-01-12T13:02:37.258Z,2.10
2023-01-12T13:12:41.388Z,3.40
2023-01-12T13:22:48.863Z,2.78
2023-01-12T13:33:15.051Z,2.80
2023-01-12T13:43:30.286Z,2.17
2023-01-12T13:53:32.406Z,2.25
2023-01-12T14:03:55.379Z,2.72
2023-01-12T14:14:15.678Z,3.70
2023-01-12T14:24:22.356Z,2.40
2023-01-12T14:34:27.898Z,5.40
2023-01-12T14:44:29.968Z,6.05
2023-01-12T14:54:34.419Z,3.90
2023-01-12T15:04:36.368Z,5.25
2023-01-12T15:14:39.533Z,5.43
2023-01-12T15:24:41.663Z,5.13
2023-01-12T15:34:43.594Z,6.60
2023-01-12T15:44:46.741Z,6.03
2023-01-12T15:54:49.045Z,4.70
2023-01-12T16:04:51.033Z,5.20
2023-01-12T16:14:52.902Z,8.80
2023-01-12T16:24:56.146Z,6.18
2023-01-12T16:34:57.980Z,7.88
2023-01-12T16:44:59.793Z,8.07
2023-01-12T16:55:01.641Z,8.32
2023-01-12T17:05:07.044Z,8.18
2023-01-12T17:15:15.077Z,10.65
2023-01-12T17:25:17.341Z,8.27
2023-01-12T17:35:19.244Z,6.53
2023-01-12T17:45:21.023Z,12.25
2023-01-12T17:55:22.961Z,8.82
2023-01-12T18:05:26.834Z,11.05
2023-01-12T18:15:32.213Z,5.30
2023-01-12T18:25:36.464Z,3.78
2023-01-12T18:35:39.336Z,3.03
2023-01-12T18:45:41.165Z,3.75
2023-01-12T18:55:43.539Z,5.38
2023-01-12T19:05:45.356Z,5.65
2023-01-12T19:15:47.297Z,3.35
2023-01-12T19:25:49.077Z,3.75
2023-01-12T19:35:50.929Z,3.20
2023-01-12T19:46:01.569Z,3.78
2023-01-12T19:56:10.526Z,3.92
2023-01-12T20:06:12.378Z,3.27
2023-01-12T20:16:19.708Z,3.00
2023-01-12T20:26:21.740Z,2.92
2023-01-12T20:36:23.654Z,2.28
2023-01-12T20:46:25.794Z,3.58
2023-01-12T20:56:27.945Z,2.72
2023-01-12T21:06:29.894Z,2.75
2023-01-12T21:16:31.942Z,2.42
2023-01-12T21:26:33.865Z,3.13
2023-01-12T21:36:35.844Z,2.78
2023-01-12T21:46:39.921Z,2.67
2023-01-12T21:56:41.720Z,2.83
2023-01-12T22:06:43.919Z,2.03
2023-01-12T22:16:45.889Z,2.85
2023-01-12T22:26:47.772Z,2.30
2023-01-12T22:36:49.631Z,2.78
2023-01-12T22:46:51.956Z,3.15
2023-01-12T22:56:53.890Z,1.83
2023-01-12T23:06:55.861Z,1.60
2023-01-12T23:16:57.781Z,1.50
2023-01-12T23:26:59.723Z,2.05
2023-01-12T23:37:01.675Z,1.80
2023-01-12T23:47:03.629Z,1.70
2023-01-12T23:57:05.640Z,1.98
